createdAt,value
2019-04-25T00:02:36.640Z,15.13
2019-04-25T00:05:12.540Z,15.09
2019-04-25T00:07:45.468Z,15.09
2019-04-25T00:10:18.360Z,15.07
2019-04-25T00:12:51.799Z,15.07
2019-04-25T00:15:24.749Z,15.03
2019-04-25T00:17:57.681Z,15.04
2019-04-25T00:20:32.257Z,15.01
2019-04-25T00:33:44.019Z,14.87
2019-04-25T00:36:16.414Z,14.83
2019-04-25T00:38:50.278Z,14.82
2019-04-25T00:41:23.937Z,14.84
2019-04-25T00:43:56.844Z,14.82
2019-04-25T00:46:29.670Z,14.79
2019-04-25T00:49:02.631Z,14.80
2019-04-25T00:51:35.451Z,14.79
2019-04-25T00:54:08.411Z,14.80
2019-04-25T00:56:44.510Z,14.79
2019-04-25T00:59:22.108Z,14.75
2019-04-25T01:02:21.484Z,14.73
2019-04-25T01:04:54.508Z,14.73
2019-04-25T01:07:27.507Z,14.70
2019-04-25T01:10:02.000Z,14.70
2019-04-25T01:12:34.991Z,14.66
2019-04-25T01:15:11.602Z,14.64
2019-04-25T01:17:45.446Z,14.62
2019-04-25T01:20:18.513Z,14.59
2019-04-25T01:22:51.422Z,14.56
2019-04-25T01:25:24.353Z,14.54
2019-04-25T01:27:57.235Z,14.52
2019-04-25T01:30:31.309Z,14.49
2019-04-25T01:33:04.979Z,14.49
2019-04-25T01:35:55.682Z,14.48
2019-04-25T01:38:43.272Z,14.47
2019-04-25T01:41:34.220Z,14.45
2019-04-25T01:44:29.172Z,14.43
2019-04-25T01:47:04.151Z,14.40
2019-04-25T01:49:37.449Z,14.38
2019-04-25T01:52:10.332Z,14.36
2019-04-25T01:54:43.743Z,14.37
2019-04-25T01:57:16.706Z,14.31
2019-04-25T01:59:49.865Z,14.27
2019-04-25T02:02:24.474Z,14.27
2019-04-25T02:04:59.136Z,14.27
2019-04-25T02:07:33.377Z,14.25
2019-04-25T02:10:08.488Z,14.26
2019-04-25T02:12:46.717Z,14.25
2019-04-25T02:15:21.372Z,14.19
2019-04-25T02:17:56.944Z,14.17
2019-04-25T02:20:28.756Z,14.19
2019-04-25T02:23:02.098Z,14.16
2019-04-25T02:25:35.035Z,14.15
2019-04-25T02:28:07.837Z,14.10
2019-04-25T02:30:40.644Z,14.09
2019-04-25T02:33:14.247Z,14.11
2019-04-25T02:35:47.297Z,14.12
2019-04-25T02:38:20.224Z,14.12
2019-04-25T02:40:57.193Z,14.12
2019-04-25T02:43:27.811Z,14.12
2019-04-25T02:46:25.641Z,14.12
2019-04-25T02:49:29.329Z,14.10
2019-04-25T02:52:17.810Z,14.07
2019-04-25T02:54:49.210Z,14.10
2019-04-25T02:57:22.062Z,14.09
2019-04-25T02:59:56.933Z,14.09
2019-04-25T03:02:29.560Z,14.07
2019-04-25T03:05:06.243Z,14.07
2019-04-25T03:07:37.039Z,14.08
2019-04-25T03:10:14.854Z,14.03
2019-04-25T03:12:47.441Z,14.00
2019-04-25T03:15:20.342Z,13.95
2019-04-25T03:17:54.606Z,13.91
2019-04-25T03:20:46.504Z,13.88
2019-04-25T03:23:36.602Z,13.81
2019-04-25T03:26:09.777Z,13.71
2019-04-25T03:28:43.826Z,13.61
2019-04-25T03:31:22.434Z,13.65
2019-04-25T03:33:51.503Z,13.66
2019-04-25T03:36:24.353Z,13.67
2019-04-25T03:38:58.362Z,13.68
2019-04-25T03:41:32.274Z,13.65
2019-04-25T03:44:06.514Z,13.64
2019-04-25T03:46:39.417Z,13.63
2019-04-25T03:49:13.940Z,13.59
2019-04-25T03:51:47.034Z,13.56
2019-04-25T03:54:19.942Z,13.51
2019-04-25T03:56:55.623Z,13.51
2019-04-25T03:59:27.432Z,13.50
2019-04-25T04:02:01.266Z,13.45
2019-04-25T04:04:34.149Z,13.47
2019-04-25T04:07:08.821Z,13.46
2019-04-25T04:09:43.470Z,13.49
2019-04-25T04:12:16.201Z,13.47
2019-04-25T04:14:49.144Z,13.56
2019-04-25T04:17:35.034Z,13.66
2019-04-25T04:20:29.834Z,13.77
2019-04-25T04:23:10.232Z,13.91
2019-04-25T04:25:43.375Z,14.04
2019-04-25T04:28:16.230Z,14.10
2019-04-25T04:30:49.172Z,14.12
2019-04-25T04:33:30.233Z,14.16
2019-04-25T04:35:56.990Z,14.29
2019-04-25T04:38:29.977Z,14.35
2019-04-25T04:41:03.964Z,14.38
2019-04-25T04:43:37.244Z,14.43
2019-04-25T04:46:10.239Z,14.54
2019-04-25T04:48:43.810Z,14.48
2019-04-25T04:51:17.033Z,14.47
2019-04-25T04:53:49.831Z,14.38
2019-04-25T04:56:25.680Z,14.44
2019-04-25T04:58:58.471Z,14.49
2019-04-25T05:01:33.933Z,14.53
2019-04-25T05:04:14.901Z,14.56
2019-04-25T05:07:07.775Z,14.60
2019-04-25T05:09:40.652Z,14.63
2019-04-25T05:12:15.255Z,14.67
2019-04-25T05:14:48.879Z,14.69
2019-04-25T05:17:23.730Z,14.76
2019-04-25T05:19:57.073Z,14.80
2019-04-25T05:22:29.967Z,14.79
2019-04-25T05:25:03.461Z,14.84
2019-04-25T05:27:50.677Z,14.88
2019-04-25T05:30:15.695Z,14.98
2019-04-25T05:32:49.727Z,15.02
2019-04-25T05:35:25.008Z,15.08
2019-04-25T05:37:58.227Z,15.18
2019-04-25T05:40:31.105Z,15.16
2019-04-25T05:43:13.424Z,15.24
2019-04-25T05:45:47.227Z,15.36
2019-04-25T05:48:21.091Z,15.50
2019-04-25T05:50:54.933Z,15.54
2019-04-25T05:53:27.860Z,15.61
2019-04-25T05:56:04.126Z,15.68
2019-04-25T05:58:40.636Z,15.76
2019-04-25T06:01:13.615Z,15.89
2019-04-25T06:03:46.574Z,15.93
2019-04-25T06:06:20.871Z,16.03
2019-04-25T06:09:00.894Z,16.11
2019-04-25T06:11:43.761Z,16.18
2019-04-25T06:14:18.331Z,16.33
2019-04-25T06:16:53.652Z,16.49
2019-04-25T06:19:45.071Z,16.64
2019-04-25T06:22:26.814Z,16.82
2019-04-25T06:25:10.624Z,16.95
2019-04-25T06:27:51.184Z,17.10
2019-04-25T06:30:24.992Z,17.25
2019-04-25T06:32:58.895Z,17.38
2019-04-25T06:35:31.729Z,17.60
2019-04-25T06:38:04.605Z,17.81
2019-04-25T06:40:37.450Z,17.99
2019-04-25T06:43:10.299Z,18.20
2019-04-25T06:45:55.483Z,18.40
2019-04-25T06:48:47.200Z,18.54
2019-04-25T06:51:25.552Z,18.67
2019-04-25T06:53:57.461Z,18.74
2019-04-25T06:56:30.797Z,18.92
2019-04-25T06:59:03.972Z,19.02
2019-04-25T07:01:36.874Z,19.23
2019-04-25T07:04:09.702Z,19.31
2019-04-25T07:06:43.567Z,19.43
2019-04-25T07:09:17.252Z,19.49
2019-04-25T07:11:50.239Z,19.59
2019-04-25T07:14:24.831Z,19.69
2019-04-25T07:16:57.713Z,19.89
2019-04-25T07:19:30.584Z,20.11
2019-04-25T07:22:03.989Z,20.37
2019-04-25T07:24:37.086Z,20.66
2019-04-25T07:27:41.126Z,21.00
2019-04-25T07:30:51.522Z,21.32
2019-04-25T07:33:33.600Z,21.65
2019-04-25T07:36:07.181Z,21.93
2019-04-25T07:38:40.161Z,22.09
2019-04-25T07:41:14.764Z,22.26
2019-04-25T07:43:47.741Z,22.56
2019-04-25T07:46:20.698Z,22.92
2019-04-25T07:48:53.662Z,23.20
2019-04-25T07:51:28.246Z,23.35
2019-04-25T07:54:01.314Z,23.43
2019-04-25T07:56:35.221Z,23.65
2019-04-25T07:59:09.098Z,23.96
2019-04-25T08:01:43.613Z,24.19
2019-04-25T08:04:16.696Z,24.16
2019-04-25T08:06:50.341Z,24.48
2019-04-25T08:09:24.313Z,24.66
2019-04-25T08:11:57.391Z,24.69
2019-04-25T08:15:01.141Z,24.96
2019-04-25T08:17:51.548Z,25.07
2019-04-25T08:20:24.912Z,25.25
2019-04-25T08:22:59.095Z,25.33
2019-04-25T08:25:33.472Z,25.16
2019-04-25T08:28:07.003Z,24.78
2019-04-25T08:30:39.902Z,24.78
2019-04-25T08:33:13.975Z,24.59
2019-04-25T08:36:03.531Z,24.65
2019-04-25T08:38:23.740Z,25.32
2019-04-25T08:40:56.925Z,25.37
2019-04-25T08:43:30.024Z,25.75
2019-04-25T08:46:04.239Z,26.04
2019-04-25T08:48:56.007Z,26.12
2019-04-25T08:51:33.864Z,26.23
2019-04-25T08:54:17.022Z,26.00
2019-04-25T08:56:50.110Z,26.32
2019-04-25T08:59:52.293Z,26.75
2019-04-25T09:02:35.436Z,27.08
2019-04-25T09:05:40.488Z,26.94
2019-04-25T09:08:14.259Z,26.57
2019-04-25T09:10:47.299Z,26.76
2019-04-25T09:13:20.165Z,27.01
2019-04-25T09:15:54.156Z,27.17
2019-04-25T09:18:29.011Z,26.97
2019-04-25T09:21:03.883Z,26.94
2019-04-25T09:23:37.859Z,27.12
2019-04-25T09:26:10.875Z,27.15
2019-04-25T09:28:45.510Z,27.29
2019-04-25T09:31:18.393Z,27.53
2019-04-25T09:33:54.161Z,27.75
2019-04-25T09:36:27.293Z,27.77
2019-04-25T09:39:01.057Z,27.91
2019-04-25T09:41:36.096Z,28.30
2019-04-25T09:44:10.927Z,28.16
2019-04-25T09:46:46.854Z,28.56
2019-04-25T09:49:27.051Z,28.55
2019-04-25T09:52:04.064Z,28.86
2019-04-25T09:54:48.820Z,29.29
2019-04-25T09:57:46.023Z,27.92
2019-04-25T10:00:31.195Z,28.52
2019-04-25T10:03:04.669Z,28.72
2019-04-25T10:05:38.490Z,28.75
2019-04-25T10:08:13.372Z,28.81
2019-04-25T10:10:46.747Z,28.92
2019-04-25T10:13:21.052Z,29.14
2019-04-25T10:16:19.206Z,29.39
2019-04-25T10:18:53.308Z,29.24
2019-04-25T10:21:26.397Z,29.09
2019-04-25T10:23:59.248Z,29.13
2019-04-25T10:26:34.955Z,29.03
2019-04-25T10:29:08.295Z,29.09
2019-04-25T10:31:41.291Z,29.00
2019-04-25T10:34:15.982Z,29.25
2019-04-25T10:36:49.038Z,29.08
2019-04-25T10:39:22.733Z,28.84
2019-04-25T10:41:55.792Z,28.74
2019-04-25T10:44:28.769Z,28.73
2019-04-25T10:47:02.009Z,29.02
2019-04-25T10:49:35.021Z,28.55
2019-04-25T10:52:08.745Z,28.71
2019-04-25T10:54:41.653Z,28.39
2019-04-25T10:57:14.943Z,28.94
2019-04-25T11:00:00.349Z,29.13
2019-04-25T11:02:25.845Z,29.31
2019-04-25T11:05:05.109Z,29.06
2019-04-25T11:07:38.209Z,28.93
2019-04-25T11:10:16.110Z,29.02
2019-04-25T11:12:49.434Z,29.04
2019-04-25T11:15:23.400Z,29.24
2019-04-25T11:17:56.427Z,29.29
2019-04-25T11:20:33.819Z,29.30
2019-04-25T11:23:07.081Z,29.08
2019-04-25T11:25:40.616Z,28.82
2019-04-25T11:28:14.625Z,29.13
2019-04-25T11:30:49.125Z,28.98
2019-04-25T11:33:22.969Z,28.83
2019-04-25T11:35:56.906Z,28.32
2019-04-25T11:38:37.641Z,28.56
2019-04-25T11:41:14.318Z,28.63
2019-04-25T11:43:48.789Z,28.59
2019-04-25T11:46:21.673Z,28.05
2019-04-25T11:48:54.872Z,28.28
2019-04-25T11:51:27.904Z,28.82
2019-04-25T11:54:00.848Z,28.58
2019-04-25T11:56:34.231Z,27.91
2019-04-25T11:59:07.387Z,27.64
2019-04-25T12:01:40.321Z,27.56
2019-04-25T12:04:14.835Z,27.66
2019-04-25T12:06:51.243Z,28.14
2019-04-25T12:09:24.210Z,28.34
2019-04-25T12:11:57.355Z,28.41
2019-04-25T12:14:30.303Z,28.65
2019-04-25T12:17:03.747Z,28.76
2019-04-25T12:19:38.084Z,28.92
2019-04-25T12:22:13.573Z,28.70
2019-04-25T12:24:46.754Z,28.26
2019-04-25T12:27:19.640Z,28.47
2019-04-25T12:29:52.492Z,28.48
2019-04-25T12:32:25.372Z,28.25
2019-04-25T12:34:58.331Z,28.09
2019-04-25T12:37:31.282Z,28.19
2019-04-25T12:40:06.339Z,27.96
2019-04-25T12:42:40.362Z,27.94
2019-04-25T12:45:35.837Z,27.77
2019-04-25T12:48:09.479Z,27.75
2019-04-25T12:50:43.886Z,27.81
2019-04-25T12:53:16.865Z,27.90
2019-04-25T12:55:49.784Z,27.89
2019-04-25T12:58:23.513Z,27.91
2019-04-25T13:00:59.063Z,27.54
2019-04-25T13:03:33.616Z,27.48
2019-04-25T13:06:07.299Z,27.64
2019-04-25T13:08:40.345Z,27.68
2019-04-25T13:11:13.975Z,27.59
2019-04-25T13:13:46.960Z,27.65
2019-04-25T13:16:19.792Z,27.54
2019-04-25T13:18:53.397Z,27.63
2019-04-25T13:21:26.417Z,27.47
2019-04-25T13:23:59.323Z,27.42
2019-04-25T13:26:36.815Z,27.20
2019-04-25T13:29:40.529Z,27.14
2019-04-25T13:32:27.322Z,26.94
2019-04-25T13:35:01.017Z,27.00
2019-04-25T13:37:35.126Z,26.91
2019-04-25T13:40:08.945Z,26.76
2019-04-25T13:42:43.180Z,26.65
2019-04-25T13:45:16.591Z,26.57
2019-04-25T13:47:49.976Z,26.61
2019-04-25T13:50:24.001Z,26.56
2019-04-25T13:52:59.650Z,26.40
2019-04-25T13:55:32.792Z,26.43
2019-04-25T13:58:05.875Z,26.45
2019-04-25T14:00:38.974Z,26.40
2019-04-25T14:03:11.928Z,26.32
2019-04-25T14:05:45.957Z,26.25
2019-04-25T14:08:18.911Z,26.32
2019-04-25T14:10:52.103Z,26.15
2019-04-25T14:13:26.310Z,26.12
2019-04-25T14:16:15.993Z,26.11
2019-04-25T14:19:10.899Z,26.13
2019-04-25T14:21:45.261Z,26.08
2019-04-25T14:24:20.601Z,26.05
2019-04-25T14:26:52.770Z,26.22
2019-04-25T14:29:26.126Z,26.18
2019-04-25T14:31:59.251Z,26.17
2019-04-25T14:34:33.709Z,26.05
2019-04-25T14:37:08.144Z,25.88
2019-04-25T14:39:41.304Z,25.91
2019-04-25T14:42:14.471Z,25.95
2019-04-25T14:44:50.401Z,25.86
2019-04-25T14:47:24.395Z,25.87
2019-04-25T14:49:57.775Z,25.96
2019-04-25T14:52:30.718Z,26.02
2019-04-25T14:55:29.598Z,26.10
2019-04-25T14:58:04.875Z,26.10
2019-04-25T15:00:42.017Z,25.98
2019-04-25T15:03:15.177Z,25.93
2019-04-25T15:05:48.664Z,25.92
2019-04-25T15:08:24.950Z,25.85
2019-04-25T15:10:58.186Z,25.85
2019-04-25T15:13:31.840Z,25.84
2019-04-25T15:16:05.211Z,25.80
2019-04-25T15:18:46.500Z,25.85
2019-04-25T15:21:13.040Z,25.83
2019-04-25T15:23:45.851Z,25.86
2019-04-25T15:26:19.086Z,25.86
2019-04-25T15:28:52.497Z,25.85
2019-04-25T15:31:25.671Z,25.77
2019-04-25T15:34:02.488Z,25.70
2019-04-25T15:36:44.981Z,25.63
2019-04-25T15:39:39.913Z,25.54
2019-04-25T15:42:38.815Z,25.56
2019-04-25T15:45:34.256Z,25.43
2019-04-25T15:48:08.435Z,25.50
2019-04-25T15:50:41.959Z,25.55
2019-04-25T15:53:14.861Z,25.60
2019-04-25T15:55:47.915Z,25.59
2019-04-25T15:58:20.834Z,25.58
2019-04-25T16:00:53.770Z,25.56
2019-04-25T16:03:28.320Z,25.60
2019-04-25T16:06:01.214Z,25.57
2019-04-25T16:08:35.114Z,25.61
2019-04-25T16:11:08.148Z,25.56
2019-04-25T16:13:41.127Z,25.53
2019-04-25T16:16:13.913Z,25.47
2019-04-25T16:18:46.812Z,25.49
2019-04-25T16:21:20.238Z,25.44
2019-04-25T16:23:53.124Z,25.40
2019-04-25T16:26:26.978Z,25.40
2019-04-25T16:29:00.678Z,25.37
2019-04-25T16:31:34.564Z,25.33
2019-04-25T16:34:07.569Z,25.32
2019-04-25T16:36:40.405Z,25.30
2019-04-25T16:39:19.180Z,25.26
2019-04-25T16:41:52.466Z,25.20
2019-04-25T16:44:25.500Z,25.17
2019-04-25T16:46:58.431Z,25.12
2019-04-25T16:49:32.516Z,25.08
2019-04-25T16:52:08.541Z,25.04
2019-04-25T16:54:42.949Z,24.98
2019-04-25T16:57:15.923Z,24.94
2019-04-25T16:59:48.852Z,24.89
2019-04-25T17:02:32.496Z,24.83
2019-04-25T17:04:57.047Z,24.78
2019-04-25T17:07:30.446Z,24.72
2019-04-25T17:10:03.374Z,24.68
2019-04-25T17:12:38.467Z,24.62
2019-04-25T17:15:30.535Z,24.56
2019-04-25T17:18:08.869Z,24.50
2019-04-25T17:20:46.980Z,24.44
2019-04-25T17:23:25.380Z,24.37
2019-04-25T17:25:58.432Z,24.32
2019-04-25T17:28:33.116Z,24.26
2019-04-25T17:31:17.543Z,24.23
2019-04-25T17:34:04.846Z,24.18
2019-04-25T17:36:52.451Z,24.12
2019-04-25T17:39:44.432Z,24.04
2019-04-25T17:42:17.967Z,23.96
2019-04-25T17:44:52.924Z,23.88
2019-04-25T17:47:28.629Z,23.81
2019-04-25T17:50:08.000Z,23.74
2019-04-25T17:52:43.508Z,23.68
2019-04-25T17:55:17.237Z,23.61
2019-04-25T17:57:57.202Z,23.49
2019-04-25T18:00:39.699Z,23.37
2019-04-25T18:03:14.249Z,23.28
2019-04-25T18:05:49.913Z,23.13
2019-04-25T18:08:24.608Z,23.04
2019-04-25T18:10:59.108Z,22.86
2019-04-25T18:13:34.384Z,22.74
2019-04-25T18:16:23.656Z,22.66
2019-04-25T18:19:09.226Z,22.59
2019-04-25T18:21:43.108Z,22.50
2019-04-25T18:24:39.046Z,22.37
2019-04-25T18:27:24.952Z,22.29
2019-04-25T18:30:06.173Z,22.21
2019-04-25T18:32:47.948Z,22.09
2019-04-25T18:35:28.727Z,21.97
2019-04-25T18:38:19.705Z,21.86
2019-04-25T18:41:03.930Z,21.77
2019-04-25T18:43:47.105Z,21.66
2019-04-25T18:46:28.597Z,21.51
2019-04-25T18:49:05.179Z,21.43
2019-04-25T18:51:38.731Z,21.32
2019-04-25T18:54:32.710Z,21.22
2019-04-25T18:57:37.649Z,21.13
2019-04-25T19:00:37.810Z,21.06
2019-04-25T19:03:33.108Z,20.93
2019-04-25T19:06:10.375Z,20.82
2019-04-25T19:08:43.516Z,20.73
2019-04-25T19:11:16.783Z,20.64
2019-04-25T19:13:49.931Z,20.55
2019-04-25T19:16:23.199Z,20.49
2019-04-25T19:18:56.332Z,20.39
2019-04-25T19:21:33.217Z,20.30
2019-04-25T19:24:06.643Z,20.21
2019-04-25T19:26:43.198Z,20.11
2019-04-25T19:29:14.729Z,20.03
2019-04-25T19:31:51.942Z,19.98
2019-04-25T19:34:24.302Z,19.92
2019-04-25T19:36:57.697Z,19.87
2019-04-25T19:39:36.321Z,19.78
2019-04-25T19:42:24.997Z,19.72
2019-04-25T19:45:02.388Z,19.68
2019-04-25T19:47:55.336Z,19.60
2019-04-25T19:50:51.177Z,19.54
2019-04-25T19:53:31.324Z,19.48
2019-04-25T19:56:22.924Z,19.43
2019-04-25T19:59:19.777Z,19.31
2019-04-25T20:02:04.375Z,19.23
2019-04-25T20:04:49.733Z,19.15
2019-04-25T20:11:04.129Z,19.06
2019-04-25T20:14:07.336Z,18.98
2019-04-25T20:17:11.329Z,18.88
2019-04-25T20:20:40.584Z,18.83
2019-04-25T20:23:54.469Z,18.72
2019-04-25T20:26:30.670Z,18.62
2019-04-25T20:29:11.459Z,18.53
2019-04-25T20:31:47.413Z,18.44
2019-04-25T20:34:21.358Z,18.37
2019-04-25T20:36:55.982Z,18.26
2019-04-25T20:39:31.014Z,18.18
2019-04-25T20:42:09.822Z,18.16
2019-04-25T20:44:43.878Z,18.08
2019-04-25T20:47:17.621Z,18.07
2019-04-25T20:49:53.569Z,18.01
2019-04-25T20:52:26.933Z,17.98
2019-04-25T20:55:03.188Z,17.96
2019-04-25T20:57:36.267Z,17.91
2019-04-25T21:00:10.303Z,17.88
2019-04-25T21:02:44.153Z,17.86
2019-04-25T21:05:17.016Z,17.80
2019-04-25T21:07:49.974Z,17.82
2019-04-25T21:10:24.287Z,17.77
2019-04-25T21:12:57.779Z,17.73
2019-04-25T21:15:49.581Z,17.65
2019-04-25T21:18:34.344Z,17.57
2019-04-25T21:21:07.304Z,17.50
2019-04-25T21:23:40.176Z,17.50
2019-04-25T21:26:13.080Z,17.48
2019-04-25T21:28:46.181Z,17.44
2019-04-25T21:31:19.132Z,17.38
2019-04-25T21:33:52.633Z,17.33
2019-04-25T21:36:26.121Z,17.24
2019-04-25T21:38:59.806Z,17.12
2019-04-25T21:42:08.553Z,17.15
2019-04-25T21:44:41.747Z,17.11
2019-04-25T21:47:16.102Z,17.10
2019-04-25T21:49:49.328Z,17.10
2019-04-25T21:52:22.628Z,17.09
2019-04-25T21:54:55.832Z,17.08
2019-04-25T21:57:29.101Z,17.01
2019-04-25T22:00:06.688Z,16.98
2019-04-25T22:02:38.584Z,16.93
2019-04-25T22:05:12.445Z,16.88
2019-04-25T22:07:45.518Z,16.81
2019-04-25T22:10:18.849Z,16.80
2019-04-25T22:12:51.881Z,16.79
2019-04-25T22:15:27.914Z,16.74
2019-04-25T22:18:00.194Z,16.69
2019-04-25T22:20:33.327Z,16.60
2019-04-25T22:23:06.786Z,16.55
2019-04-25T22:25:40.038Z,16.53
2019-04-25T22:28:14.359Z,16.50
2019-04-25T22:30:49.562Z,16.42
2019-04-25T22:33:41.284Z,16.34
2019-04-25T22:36:17.216Z,16.30
2019-04-25T22:39:07.544Z,16.26
2019-04-25T22:41:50.005Z,16.22
2019-04-25T22:44:22.428Z,16.20
2019-04-25T22:46:55.550Z,16.17
2019-04-25T22:49:28.639Z,16.15
2019-04-25T22:52:01.748Z,16.13
2019-04-25T22:54:37.146Z,16.16
2019-04-25T22:57:10.023Z,16.15
2019-04-25T22:59:43.295Z,16.12
2019-04-25T23:02:34.977Z,16.07
2019-04-25T23:05:25.266Z,16.10
2019-04-25T23:07:58.632Z,16.01
2019-04-25T23:10:31.734Z,15.93
2019-04-25T23:13:04.732Z,15.91
2019-04-25T23:15:37.638Z,15.90
2019-04-25T23:18:11.385Z,15.92
2019-04-25T23:20:44.567Z,15.89
2019-04-25T23:23:17.643Z,15.91
2019-04-25T23:26:12.359Z,15.94
2019-04-25T23:28:45.937Z,15.93
2019-04-25T23:31:26.130Z,15.93
2019-04-25T23:33:59.510Z,15.92
2019-04-25T23:36:32.714Z,15.86
2019-04-25T23:39:09.369Z,15.82
2019-04-25T23:41:42.676Z,15.76
2019-04-25T23:44:16.169Z,15.81
2019-04-25T23:46:49.276Z,15.83
2019-04-25T23:49:23.048Z,15.78
2019-04-25T23:51:56.244Z,15.82
2019-04-25T23:54:29.066Z,15.82
2019-04-25T23:57:02.319Z,15.82
2019-04-25T23:59:35.499Z,15.82
